Kathy Ann — WDE6768 — position and weather

sailwx.info

Track history (hours):
 
Tides and Currents Weather Stations Pressure Air Temp Water Temp Dewpoint Dewpoint Depression Visibility Wind Speed Wind Dir Waves Ship Positions

Kathy Ann

Owner: Kathy Ann Corporation, Barnegat Light, NJ. More information available from US FCC via Universal Licensing System and Coast Guard Vessel Documentation Center.

Last reported at 2018-Jun-23 15:26 UTC. Time now 2018-Jun-25 19:44 UTC.
Position N 39°47' W 074°01'.

Length 34 m.

Type: Fishing. MMSI: 367384580.

Date/timePositionNaut miles runAvg speedWind from/ knotsBaromVisibWave heightAir tempDewpointWater temp
2018-Jun-23 15:26N 39°47' W 074°01'4 7.2
2018-Jun-23 14:56N 39°46' W 074°06'1 0.2
2018-Jun-23 09:02N 39°45' W 074°07'0 0.0
2018-Jun-23 08:50N 39°45' W 074°07'0 0.0
2018-Jun-22 19:38N 39°45' W 074°07'0 0.0
2018-Jun-22 19:20N 39°45' W 074°07'0 0.0
2018-Jun-22 18:50N 39°45' W 074°07'0 0.0
2018-Jun-22 18:02N 39°45' W 074°07'0 0.0
2018-Jun-22 17:50N 39°45' W 074°07'0 0.0
2018-Jun-22 17:08N 39°45' W 074°07'0 0.0
2018-Jun-22 16:44N 39°45' W 074°07'0 0.0
2018-Jun-22 14:44N 39°45' W 074°07'0 0.0
2018-Jun-22 14:14N 39°45' W 074°07'0 0.0
2018-Jun-22 13:44N 39°45' W 074°07'0 0.0
2018-Jun-22 12:50N 39°45' W 074°07'0 0.0
2018-Jun-22 11:17N 39°45' W 074°07'0 0.0
2018-Jun-22 10:53N 39°45' W 074°07'0 0.0
2018-Jun-22 09:23N 39°45' W 074°07'0 0.0
2018-Jun-22 06:05N 39°45' W 074°07'0 0.0
2018-Jun-22 05:59N 39°45' W 074°07'0 0.0
2018-Jun-22 05:29N 39°45' W 074°07'0 0.0
2018-Jun-22 04:05N 39°45' W 074°07'0 0.0
2018-Jun-22 03:59N 39°45' W 074°07'0 0.0
2018-Jun-22 02:11N 39°45' W 074°07'0 0.0
2018-Jun-22 01:47N 39°45' W 074°07'0 0.0
2018-Jun-22 01:17N 39°45' W 074°07'0 0.0
2018-Jun-21 23:23N 39°45' W 074°07'0 0.0
2018-Jun-21 22:59N 39°45' W 074°07'0 0.0
2018-Jun-21 21:05N 39°45' W 074°07'0 0.1
2018-Jun-21 20:59N 39°45' W 074°07'0 0.0
2018-Jun-21 20:29N 39°45' W 074°07'0 0.0
2018-Jun-21 19:47N 39°45' W 074°07'0 0.0
2018-Jun-21 19:17N 39°45' W 074°07'0 0.0
2018-Jun-21 17:17N 39°45' W 074°07'0 0.0
2018-Jun-21 16:17N 39°45' W 074°07'0 0.0
2018-Jun-21 15:59N 39°45' W 074°07'0 0.0
2018-Jun-21 15:17N 39°45' W 074°07'0 0.0
2018-Jun-21 13:05N 39°45' W 074°07'0 0.0
2018-Jun-21 12:41N 39°45' W 074°07'0 0.0
2018-Jun-21 09:53N 39°45' W 074°07'0 0.0
2018-Jun-21 03:38N 39°45' W 074°07'0 0.0
2018-Jun-21 03:20N 39°45' W 074°07'0 0.0
2018-Jun-21 02:56N 39°45' W 074°07'0 0.0
2018-Jun-21 02:20N 39°45' W 074°07'0 0.0
2018-Jun-21 01:14N 39°45' W 074°07'0 0.0
2018-Jun-21 00:08N 39°45' W 074°07'0 0.0
2018-Jun-20 23:50N 39°45' W 074°07'0 0.0
2018-Jun-20 23:02N 39°45' W 074°07'0 0.0
2018-Jun-20 21:56N 39°45' W 074°07'0 0.0
2018-Jun-20 21:26N 39°45' W 074°07'0 0.0
2018-Jun-20 20:26N 39°45' W 074°07'0 0.0
2018-Jun-20 19:26N 39°45' W 074°07'0 0.0
2018-Jun-20 18:56N 39°45' W 074°07'0 0.0
2018-Jun-20 17:44N 39°45' W 074°07'0 0.0
2018-Jun-20 16:50N 39°45' W 074°07'0 0.0
2018-Jun-20 15:26N 39°45' W 074°07'0 0.0
2018-Jun-20 10:40N 39°45' W 074°07'0 0.0
2018-Jun-20 09:40N 39°45' W 074°07'0 1.4
2018-Jun-20 09:25N 39°45' W 074°07'3 5.1
2018-Jun-20 08:53N 39°45' W 074°04'3 6.2
2018-Jun-20 08:24N 39°42' W 074°02'4 6.6
2018-Jun-20 07:51N 39°38' W 074°03'  
Track history (hours):
 
Tides and Currents Weather Stations Pressure Air Temp Water Temp Dewpoint Dewpoint Depression Visibility Wind Speed Wind Dir Waves Ship Positions

Kathy Ann

Owner: Kathy Ann Corporation, Barnegat Light, NJ. More information available from US FCC via Universal Licensing System and Coast Guard Vessel Documentation Center.

Last reported at 2018-Jun-23 15:26 UTC. Time now 2018-Jun-25 19:44 UTC.
Position N 39°47' W 074°01'.

Length 34 m.

Type: Fishing. MMSI: 367384580.

Date/timePositionNaut miles runAvg speedWind from/ knotsBaromVisibWave heightAir tempDewpointWater temp
2018-Jun-23 15:26N 39°47' W 074°01'4 7.2
2018-Jun-23 14:56N 39°46' W 074°06'1 0.2
2018-Jun-23 09:02N 39°45' W 074°07'0 0.0
2018-Jun-23 08:50N 39°45' W 074°07'0 0.0
2018-Jun-22 19:38N 39°45' W 074°07'0 0.0
2018-Jun-22 19:20N 39°45' W 074°07'0 0.0
2018-Jun-22 18:50N 39°45' W 074°07'0 0.0
2018-Jun-22 18:02N 39°45' W 074°07'0 0.0
2018-Jun-22 17:50N 39°45' W 074°07'0 0.0
2018-Jun-22 17:08N 39°45' W 074°07'0 0.0
2018-Jun-22 16:44N 39°45' W 074°07'0 0.0
2018-Jun-22 14:44N 39°45' W 074°07'0 0.0
2018-Jun-22 14:14N 39°45' W 074°07'0 0.0
2018-Jun-22 13:44N 39°45' W 074°07'0 0.0
2018-Jun-22 12:50N 39°45' W 074°07'0 0.0
2018-Jun-22 11:17N 39°45' W 074°07'0 0.0
2018-Jun-22 10:53N 39°45' W 074°07'0 0.0
2018-Jun-22 09:23N 39°45' W 074°07'0 0.0
2018-Jun-22 06:05N 39°45' W 074°07'0 0.0
2018-Jun-22 05:59N 39°45' W 074°07'0 0.0
2018-Jun-22 05:29N 39°45' W 074°07'0 0.0
2018-Jun-22 04:05N 39°45' W 074°07'0 0.0
2018-Jun-22 03:59N 39°45' W 074°07'0 0.0
2018-Jun-22 02:11N 39°45' W 074°07'0 0.0
2018-Jun-22 01:47N 39°45' W 074°07'0 0.0
2018-Jun-22 01:17N 39°45' W 074°07'0 0.0
2018-Jun-21 23:23N 39°45' W 074°07'0 0.0
2018-Jun-21 22:59N 39°45' W 074°07'0 0.0
2018-Jun-21 21:05N 39°45' W 074°07'0 0.1
2018-Jun-21 20:59N 39°45' W 074°07'0 0.0
2018-Jun-21 20:29N 39°45' W 074°07'0 0.0
2018-Jun-21 19:47N 39°45' W 074°07'0 0.0
2018-Jun-21 19:17N 39°45' W 074°07'0 0.0
2018-Jun-21 17:17N 39°45' W 074°07'0 0.0
2018-Jun-21 16:17N 39°45' W 074°07'0 0.0
2018-Jun-21 15:59N 39°45' W 074°07'0 0.0
2018-Jun-21 15:17N 39°45' W 074°07'0 0.0
2018-Jun-21 13:05N 39°45' W 074°07'0 0.0
2018-Jun-21 12:41N 39°45' W 074°07'0 0.0
2018-Jun-21 09:53N 39°45' W 074°07'0 0.0
2018-Jun-21 03:38N 39°45' W 074°07'0 0.0
2018-Jun-21 03:20N 39°45' W 074°07'0 0.0
2018-Jun-21 02:56N 39°45' W 074°07'0 0.0
2018-Jun-21 02:20N 39°45' W 074°07'0 0.0
2018-Jun-21 01:14N 39°45' W 074°07'0 0.0
2018-Jun-21 00:08N 39°45' W 074°07'0 0.0
2018-Jun-20 23:50N 39°45' W 074°07'0 0.0
2018-Jun-20 23:02N 39°45' W 074°07'0 0.0
2018-Jun-20 21:56N 39°45' W 074°07'0 0.0
2018-Jun-20 21:26N 39°45' W 074°07'0 0.0
2018-Jun-20 20:26N 39°45' W 074°07'0 0.0
2018-Jun-20 19:26N 39°45' W 074°07'0 0.0
2018-Jun-20 18:56N 39°45' W 074°07'0 0.0
2018-Jun-20 17:44N 39°45' W 074°07'0 0.0
2018-Jun-20 16:50N 39°45' W 074°07'0 0.0
2018-Jun-20 15:26N 39°45' W 074°07'0 0.0
2018-Jun-20 10:40N 39°45' W 074°07'0 0.0
2018-Jun-20 09:40N 39°45' W 074°07'0 1.4
2018-Jun-20 09:25N 39°45' W 074°07'3 5.1
2018-Jun-20 08:53N 39°45' W 074°04'3 6.2
2018-Jun-20 08:24N 39°42' W 074°02'4 6.6
2018-Jun-20 07:51N 39°38' W 074°03'  

Dump ship's entire track history